Main page
METAR-TAF:

METAR-TAF

Airports :

Owatonna Degner Regional Airport

Owatonna, Minnesota, United States

latitude: 44-07N, longitude: 093-15W, elevation: 1148 ft

Current weather observation

The report was made 17 minutes ago, at 21:53 UTC
Wind 9 mph from the South/Southwest
Temperature 7°F
Humidity 66%
Pressure 30.65 in. Hg
Visibility: 10 miles
Clear sky

METAR: KOWA 202153Z AUTO 20008KT 10SM CLR M14/M19 A3065 RMK AO2

Time: 16:10 (22:10 UTC)


TAF: missing

Weather observations and forecasts of more than 4000 airports (METAR and TAF reports).

The available stations are represented by yellow and red dots on the map.

Hover mouse over dot to see the name of the station.

Then click to see weather observations and forecasts.

To change the map : click on the green buttons with a black cross to zoom in, on the green button with a dash to zoom out, or on the green arrows for adjacent maps.


METAR-TAF: